GUCY/CKY METAR and TAF weather

Enter ICAO airport designator
Station Type Date Time Source
GUCY METAR 2024/04/15 08:00 UTC NOAA

GUCY 150800Z 36006KT CAVOK 28/20 Q1012 NOSIG


Station Type Date Time Source
GUCY Decoded METAR 2024/04/15 08:00 UTC NOAA

Conakry / Gbessia, Guinea (GUCY) 09-34N 013-37W 26M
Apr 15, 2024 - 04:00 AM EDT / 2024.04.15 0800 UTC
Wind: from the N (360 degrees) at 7 MPH (6 KT):0
Visibility: greater than 7 mile(s):0
Temperature: 82 F (28 C)
Dew Point: 68 F (20 C)
Relative Humidity: 61%
Pressure (altimeter): 29.88 in. Hg (1012 hPa)
ob: GUCY 150800Z 36006KT CAVOK 28/20 Q1012 NOSIG
cycle: 8

Station Type Date Time Source
GUCY TAF 2024/04/15 06:24 UTC NOAA